Time;durP1;ratioP1;P1;durP2;ratioP2;P2;SDS_P1;SDS_P2;PMS_P1;PMS_P2;Temp;Humidity;BMP_temperature;BMP_pressure;BME280_temperature;BME280_humidity;BME280_pressure;Samples;Min_cycle;Max_cycle;Signal;HPM_P1;HPM_P2
2022/12/03 00:01:59;;;;;;;;;;;3.80;99.90;;;;;;5078452;28;19912;-86
2022/12/03 00:04:24;;;;;;;;;;;3.90;99.90;;;;;;5077926;28;20024;-86
2022/12/03 00:06:50;;;;;;;;;;;3.90;99.90;;;;;;5077270;28;19908;-85
2022/12/03 00:09:15;;;;;;;;;;;3.90;99.90;;;;;;5076475;28;19960;-85
2022/12/03 00:11:41;;;;;;;;;;;3.90;99.90;;;;;;5076822;28;20324;-85
2022/12/03 00:14:06;;;;;;;;;;;3.90;99.90;;;;;;5076787;28;19915;-86
2022/12/03 00:16:32;;;;;;;;;;;3.90;99.90;;;;;;5076689;28;20388;-85
2022/12/03 00:18:57;;;;;;;;;;;4.00;99.90;;;;;;5075998;28;19913;-86
2022/12/03 00:21:23;;;;;;;;;;;4.00;99.90;;;;;;5076536;28;19908;-86
2022/12/03 00:23:48;;;;;;;;;;;4.00;99.90;;;;;;5076778;28;19948;-85
2022/12/03 00:26:14;;;;;;;;;;;3.80;99.90;;;;;;5076989;28;19917;-86
2022/12/03 00:28:39;;;;;;;;;;;3.80;99.90;;;;;;5076927;28;19913;-85
2022/12/03 00:31:05;;;;;;;;;;;3.70;99.90;;;;;;5075844;28;19915;-88
2022/12/03 00:33:30;;;;;;;;;;;3.70;99.90;;;;;;5075769;28;19916;-87
2022/12/03 00:35:55;;;;;;;;;;;3.70;99.90;;;;;;5079020;28;19909;-88
2022/12/03 00:38:21;;;;;;;;;;;3.80;99.90;;;;;;5083909;28;19954;-87
2022/12/03 00:40:46;;;;;;;;;;;3.90;99.90;;;;;;5084214;28;19940;-86
2022/12/03 00:43:12;;;;;;;;;;;3.90;99.90;;;;;;5083761;28;19916;-86
2022/12/03 00:45:37;;;;;;;;;;;4.00;99.90;;;;;;5083538;28;20015;-86
2022/12/03 00:48:03;;;;;;;;;;;4.10;99.90;;;;;;5083132;28;19913;-87
2022/12/03 00:50:28;;;;;;;;;;;4.10;99.90;;;;;;5083547;28;19932;-85
2022/12/03 00:52:54;;;;;;;;;;;4.10;99.90;;;;;;5083792;28;20319;-86
2022/12/03 00:55:20;;;;;;;;;;;4.10;99.90;;;;;;5084604;28;19908;-86
2022/12/03 00:57:48;;;;;;;;;;;4.10;99.90;;;;;;5082620;28;19908;-86
2022/12/03 01:00:14;;;;;;;;;;;4.20;99.90;;;;;;5082997;28;19908;-87
2022/12/03 01:02:39;;;;;;;;;;;4.20;99.90;;;;;;5082307;28;19912;-86
2022/12/03 01:05:05;;;;;;;;;;;4.20;99.90;;;;;;5086241;28;19974;-86
2022/12/03 01:07:31;;;;;;;;;;;4.20;99.90;;;;;;5088143;28;19909;-86
2022/12/03 01:09:56;;;;;;;;;;;4.30;99.90;;;;;;5086115;28;19909;-86
2022/12/03 01:12:22;;;;;;;;;;;4.30;99.90;;;;;;5082228;28;19909;-86
2022/12/03 01:14:47;;;;;;;;;;;4.40;99.90;;;;;;5082561;28;20281;-86
2022/12/03 01:17:13;;;;;;;;;;;4.40;99.90;;;;;;5082099;28;19909;-86
2022/12/03 01:19:39;;;;;;;;;;;4.40;99.90;;;;;;5082130;28;19908;-86
2022/12/03 01:22:05;;;;;;;;;;;4.50;99.90;;;;;;5081747;28;19909;-85
2022/12/03 01:24:31;;;;;;;;;;;4.50;99.90;;;;;;5082908;28;19908;-86
2022/12/03 01:26:57;;;;;;;;;;;4.50;99.90;;;;;;5082319;28;20295;-85
2022/12/03 01:29:22;;;;;;;;;;;4.50;99.90;;;;;;5082088;28;19912;-86
2022/12/03 01:34:32;;;;;;;;;;;4.60;99.90;;;;;;5082751;28;19919;-85
2022/12/03 01:36:58;;;;;;;;;;;4.50;99.90;;;;;;5082040;28;19909;-86
2022/12/03 01:39:23;;;;;;;;;;;4.60;99.90;;;;;;5081504;28;19952;-86
2022/12/03 01:41:50;;;;;;;;;;;4.60;99.90;;;;;;5081948;28;19908;-86
2022/12/03 01:44:26;;;;;;;;;;;4.60;99.90;;;;;;5081833;28;19999;-86
2022/12/03 01:46:53;;;;;;;;;;;4.70;99.90;;;;;;5079335;28;19909;-85
2022/12/03 01:49:20;;;;;;;;;;;4.70;99.90;;;;;;5073139;28;19938;-87
2022/12/03 01:51:47;;;;;;;;;;;4.70;99.90;;;;;;5073355;28;19908;-87
2022/12/03 01:54:18;;;;;;;;;;;4.70;99.90;;;;;;5075191;28;19995;-87
2022/12/03 01:56:44;;;;;;;;;;;4.80;99.90;;;;;;5073664;28;20401;-87
2022/12/03 01:59:14;;;;;;;;;;;4.80;99.90;;;;;;5073094;28;19961;-87
2022/12/03 02:01:40;;;;;;;;;;;4.80;99.90;;;;;;5073048;28;19977;-88
2022/12/03 02:04:07;;;;;;;;;;;4.90;99.90;;;;;;5073392;28;19951;-87
2022/12/03 02:06:33;;;;;;;;;;;4.90;99.90;;;;;;5072845;28;19912;-87
2022/12/03 02:08:59;;;;;;;;;;;4.90;99.90;;;;;;5072915;28;19913;-86
2022/12/03 02:11:30;;;;;;;;;;;4.90;99.90;;;;;;5072369;28;19909;-85
2022/12/03 02:13:58;;;;;;;;;;;4.80;99.90;;;;;;5072303;28;20398;-87
2022/12/03 02:16:24;;;;;;;;;;;4.80;99.90;;;;;;5072224;28;19955;-86
2022/12/03 02:18:49;;;;;;;;;;;4.80;99.90;;;;;;5072158;28;20337;-85
2022/12/03 02:21:15;;;;;;;;;;;4.90;99.90;;;;;;5072512;28;19909;-85
2022/12/03 02:23:56;;;;;;;;;;;4.90;99.90;;;;;;5072394;28;20274;-85
2022/12/03 02:26:21;;;;;;;;;;;4.90;99.90;;;;;;5072031;28;20255;-85
2022/12/03 02:28:47;;;;;;;;;;;5.00;99.90;;;;;;5072284;28;19938;-85
2022/12/03 02:31:12;;;;;;;;;;;5.00;99.90;;;;;;5072037;28;19962;-85
2022/12/03 02:33:38;;;;;;;;;;;5.00;99.90;;;;;;5072126;28;19915;-86
2022/12/03 02:36:03;;;;;;;;;;;5.00;99.90;;;;;;5072009;28;20362;-85
2022/12/03 02:38:29;;;;;;;;;;;5.00;99.90;;;;;;5072044;28;19915;-85
2022/12/03 02:40:56;;;;;;;;;;;5.00;99.90;;;;;;5071665;28;19908;-85
2022/12/03 02:43:22;;;;;;;;;;;5.00;99.90;;;;;;5072172;28;19912;-85
2022/12/03 02:45:50;;;;;;;;;;;5.00;99.90;;;;;;5072723;28;19916;-85
2022/12/03 02:48:22;;;;;;;;;;;5.00;99.90;;;;;;5072484;28;19912;-85
2022/12/03 02:50:50;;;;;;;;;;;4.90;99.90;;;;;;5072307;28;19912;-85
2022/12/03 02:53:17;;;;;;;;;;;4.90;99.90;;;;;;5072166;28;19908;-85
2022/12/03 02:55:43;;;;;;;;;;;4.90;99.90;;;;;;5071860;28;19908;-86
2022/12/03 02:58:09;;;;;;;;;;;4.90;99.90;;;;;;5072235;28;19912;-86
2022/12/03 03:00:36;;;;;;;;;;;4.90;99.90;;;;;;5072086;28;19908;-85
2022/12/03 03:03:02;;;;;;;;;;;4.90;99.90;;;;;;5074471;28;20396;-86
2022/12/03 03:05:28;;;;;;;;;;;5.00;99.90;;;;;;5080317;28;20332;-86
2022/12/03 03:07:53;;;;;;;;;;;4.90;99.90;;;;;;5080721;28;19912;-86
2022/12/03 03:10:21;;;;;;;;;;;4.90;99.90;;;;;;5080445;28;19996;-87
2022/12/03 03:12:47;;;;;;;;;;;4.90;99.90;;;;;;5080255;28;19943;-87
2022/12/03 03:15:13;;;;;;;;;;;4.90;99.90;;;;;;5080284;28;19908;-85
2022/12/03 03:17:38;;;;;;;;;;;4.80;99.90;;;;;;5080535;28;19931;-86
2022/12/03 03:20:04;;;;;;;;;;;4.80;99.90;;;;;;5080356;28;20346;-86
2022/12/03 03:22:31;;;;;;;;;;;4.80;99.90;;;;;;5080326;28;19908;-87
2022/12/03 03:24:56;;;;;;;;;;;4.80;99.90;;;;;;5080112;28;19909;-87
2022/12/03 03:27:22;;;;;;;;;;;4.90;99.90;;;;;;5080103;28;19908;-86
2022/12/03 03:29:47;;;;;;;;;;;4.80;99.90;;;;;;5079826;28;19916;-86
2022/12/03 03:32:12;;;;;;;;;;;4.80;99.90;;;;;;5080357;28;20125;-87
2022/12/03 03:34:38;;;;;;;;;;;4.80;99.90;;;;;;5079884;28;20435;-86
2022/12/03 03:37:03;;;;;;;;;;;4.80;99.90;;;;;;5080042;28;19908;-87
2022/12/03 03:39:29;;;;;;;;;;;4.80;99.90;;;;;;5079582;28;19915;-86
2022/12/03 03:41:54;;;;;;;;;;;4.80;99.90;;;;;;5079055;28;20385;-87
2022/12/03 03:44:20;;;;;;;;;;;4.80;99.90;;;;;;5079763;28;19916;-87
2022/12/03 03:46:47;;;;;;;;;;;4.80;99.90;;;;;;5079860;28;19909;-86
2022/12/03 03:49:13;;;;;;;;;;;4.80;99.90;;;;;;5079716;28;19912;-86
2022/12/03 03:51:39;;;;;;;;;;;4.80;99.90;;;;;;5079691;28;19984;-86
2022/12/03 03:54:05;;;;;;;;;;;4.80;99.90;;;;;;5082344;28;19930;-86
2022/12/03 03:56:31;;;;;;;;;;;4.70;99.90;;;;;;5084077;28;19958;-87
2022/12/03 03:58:57;;;;;;;;;;;4.60;99.90;;;;;;5084351;28;19962;-86
2022/12/03 04:01:23;;;;;;;;;;;4.60;99.90;;;;;;5084251;28;19908;-86
2022/12/03 04:03:48;;;;;;;;;;;4.60;99.90;;;;;;5083054;28;19923;-87
2022/12/03 04:06:14;;;;;;;;;;;4.60;99.90;;;;;;5100206;28;19920;-89
2022/12/03 04:08:39;;;;;;;;;;;4.60;99.90;;;;;;5089840;28;19938;-86
2022/12/03 04:13:49;;;;;;;;;;;4.60;99.90;;;;;;5084254;28;19915;-86
2022/12/03 04:16:15;;;;;;;;;;;4.70;99.90;;;;;;5082786;28;20285;-87
2022/12/03 04:18:43;;;;;;;;;;;4.70;99.90;;;;;;5082582;28;19912;-86
2022/12/03 04:23:57;;;;;;;;;;;4.70;99.90;;;;;;5083912;28;19920;-87
2022/12/03 04:29:07;;;;;;;;;;;4.70;99.90;;;;;;5084050;28;19923;-86
2022/12/03 04:37:03;;;;;;;;;;;4.70;99.90;;;;;;5083968;28;19951;-86
2022/12/03 04:39:29;;;;;;;;;;;4.70;99.90;;;;;;5082116;28;19909;-86
2022/12/03 04:41:54;;;;;;;;;;;4.70;99.90;;;;;;5082376;28;20498;-87
2022/12/03 04:44:32;;;;;;;;;;;4.70;99.90;;;;;;5081769;28;20370;-86
2022/12/03 04:46:58;;;;;;;;;;;4.70;99.90;;;;;;5082177;28;19908;-86
2022/12/03 04:49:24;;;;;;;;;;;4.80;99.90;;;;;;5081784;28;19920;-86
2022/12/03 04:51:49;;;;;;;;;;;4.80;99.90;;;;;;5081921;28;19915;-86
2022/12/03 04:54:15;;;;;;;;;;;4.80;99.90;;;;;;5081267;28;19915;-86
2022/12/03 04:56:40;;;;;;;;;;;4.80;99.90;;;;;;5081954;28;20282;-87
2022/12/03 04:59:06;;;;;;;;;;;4.90;99.90;;;;;;5081738;28;19912;-86
2022/12/03 05:01:31;;;;;;;;;;;4.90;99.90;;;;;;5081671;28;19962;-86
2022/12/03 05:03:56;;;;;;;;;;;4.90;99.90;;;;;;5080647;28;19920;-86
2022/12/03 05:06:22;;;;;;;;;;;4.90;99.90;;;;;;5081450;28;19915;-88
2022/12/03 05:08:47;;;;;;;;;;;4.90;99.90;;;;;;5081992;28;19917;-87
2022/12/03 05:11:13;;;;;;;;;;;4.90;99.90;;;;;;5081428;28;19913;-87
2022/12/03 05:13:39;;;;;;;;;;;4.90;99.90;;;;;;5082181;28;19915;-87
2022/12/03 05:16:04;;;;;;;;;;;4.90;99.90;;;;;;5081684;28;20393;-87
2022/12/03 05:18:30;;;;;;;;;;;4.90;99.90;;;;;;5081439;28;19909;-86
2022/12/03 05:20:55;;;;;;;;;;;4.90;99.90;;;;;;5081227;28;19920;-87
2022/12/03 05:23:21;;;;;;;;;;;4.80;99.90;;;;;;5081169;28;20271;-87
2022/12/03 05:25:46;;;;;;;;;;;4.80;99.90;;;;;;5080353;28;19966;-86
2022/12/03 05:28:12;;;;;;;;;;;4.70;99.90;;;;;;5081292;28;19912;-86
2022/12/03 05:30:37;;;;;;;;;;;4.70;99.90;;;;;;5081280;28;19931;-86
2022/12/03 05:33:03;;;;;;;;;;;4.70;99.90;;;;;;5080008;28;19912;-87
2022/12/03 05:35:28;;;;;;;;;;;4.70;99.90;;;;;;5080361;28;19915;-86
2022/12/03 05:37:54;;;;;;;;;;;4.70;99.90;;;;;;5081368;28;19909;-87
2022/12/03 05:40:19;;;;;;;;;;;4.70;99.90;;;;;;5079584;28;19915;-87
2022/12/03 05:42:55;;;;;;;;;;;4.70;99.90;;;;;;5080058;28;19982;-87
2022/12/03 05:45:29;;;;;;;;;;;4.60;99.90;;;;;;5079537;28;19947;-87
2022/12/03 05:47:55;;;;;;;;;;;4.60;99.90;;;;;;5079703;28;19913;-86
2022/12/03 05:50:22;;;;;;;;;;;4.60;99.90;;;;;;5079611;28;19958;-86
2022/12/03 05:52:47;;;;;;;;;;;4.60;99.90;;;;;;5079755;28;19912;-87
2022/12/03 05:55:13;;;;;;;;;;;4.50;99.90;;;;;;5080070;28;19916;-86
2022/12/03 05:57:38;;;;;;;;;;;4.60;99.90;;;;;;5079818;28;20388;-86
2022/12/03 06:00:05;;;;;;;;;;;4.50;99.90;;;;;;5079726;28;20377;-86
2022/12/03 06:02:31;;;;;;;;;;;4.50;99.90;;;;;;5079307;28;19916;-86
2022/12/03 06:04:56;;;;;;;;;;;4.50;99.90;;;;;;5080186;28;19935;-86
2022/12/03 06:07:22;;;;;;;;;;;4.50;99.90;;;;;;5079353;28;19916;-88
2022/12/03 06:09:47;;;;;;;;;;;4.50;99.90;;;;;;5079509;28;19912;-86
2022/12/03 06:12:13;;;;;;;;;;;4.50;99.90;;;;;;5079572;28;19909;-86
2022/12/03 06:14:38;;;;;;;;;;;4.50;99.90;;;;;;5080136;28;19909;-86
2022/12/03 06:17:04;;;;;;;;;;;4.50;99.90;;;;;;5079079;28;19915;-87
2022/12/03 06:19:29;;;;;;;;;;;4.50;99.90;;;;;;5079804;28;20009;-86
2022/12/03 06:21:55;;;;;;;;;;;4.60;99.90;;;;;;5079158;28;19908;-86
2022/12/03 06:24:20;;;;;;;;;;;4.50;99.90;;;;;;5079715;28;20452;-87
2022/12/03 06:26:46;;;;;;;;;;;4.50;99.90;;;;;;5079497;28;19908;-86
2022/12/03 06:29:25;;;;;;;;;;;4.50;99.90;;;;;;5079713;28;20579;-87
2022/12/03 06:31:51;;;;;;;;;;;4.50;99.90;;;;;;5080347;28;19909;-87
2022/12/03 06:34:16;;;;;;;;;;;4.50;99.90;;;;;;5079491;28;19934;-86
2022/12/03 06:36:42;;;;;;;;;;;4.50;99.90;;;;;;5080414;28;20217;-86
2022/12/03 06:39:07;;;;;;;;;;;4.50;99.90;;;;;;5080777;28;19909;-86
2022/12/03 06:41:33;;;;;;;;;;;4.50;99.90;;;;;;5080137;28;19916;-87
2022/12/03 06:43:58;;;;;;;;;;;4.50;99.90;;;;;;5079089;28;20395;-86
2022/12/03 06:46:24;;;;;;;;;;;4.40;99.90;;;;;;5078815;28;19912;-86
2022/12/03 06:48:49;;;;;;;;;;;4.40;99.90;;;;;;5079238;28;19913;-86
2022/12/03 06:51:15;;;;;;;;;;;4.40;99.90;;;;;;5078947;28;19909;-87
2022/12/03 06:53:40;;;;;;;;;;;4.40;99.90;;;;;;5079550;28;19948;-86
2022/12/03 06:56:06;;;;;;;;;;;4.40;99.90;;;;;;5079369;28;20051;-86
2022/12/03 06:58:31;;;;;;;;;;;4.40;99.90;;;;;;5079239;28;19914;-86
2022/12/03 07:00:57;;;;;;;;;;;4.50;99.90;;;;;;5079792;28;19921;-86
2022/12/03 07:03:22;;;;;;;;;;;4.50;99.90;;;;;;5079506;28;20438;-87
2022/12/03 07:05:48;;;;;;;;;;;4.50;99.90;;;;;;5078710;28;19909;-86
2022/12/03 07:08:13;;;;;;;;;;;4.50;99.90;;;;;;5079617;28;19917;-88
2022/12/03 07:10:39;;;;;;;;;;;4.50;99.90;;;;;;5078737;28;20007;-86
2022/12/03 07:13:04;;;;;;;;;;;4.50;99.90;;;;;;5078872;28;19908;-86
2022/12/03 07:15:30;;;;;;;;;;;4.60;99.90;;;;;;5079367;28;20003;-87
2022/12/03 07:17:55;;;;;;;;;;;4.60;99.90;;;;;;5079087;28;19966;-86
2022/12/03 07:20:21;;;;;;;;;;;4.60;99.90;;;;;;5078852;28;20401;-86
2022/12/03 07:22:46;;;;;;;;;;;4.70;99.90;;;;;;5078951;28;19927;-86
2022/12/03 07:25:12;;;;;;;;;;;4.70;99.90;;;;;;5078078;28;19908;-88
2022/12/03 07:27:37;;;;;;;;;;;4.70;99.90;;;;;;5079496;28;19965;-86
2022/12/03 07:30:04;;;;;;;;;;;4.70;99.90;;;;;;5082497;28;19979;-87
2022/12/03 07:32:30;;;;;;;;;;;4.70;99.90;;;;;;5083272;28;20373;-86
2022/12/03 07:34:55;;;;;;;;;;;4.70;99.90;;;;;;5082241;28;19938;-87
2022/12/03 07:37:21;;;;;;;;;;;4.80;99.90;;;;;;5082143;28;19916;-87
2022/12/03 07:39:46;;;;;;;;;;;4.70;99.90;;;;;;5082302;28;20388;-87
2022/12/03 07:42:11;;;;;;;;;;;4.70;99.90;;;;;;5083061;28;19908;-86
2022/12/03 07:44:37;;;;;;;;;;;4.60;99.90;;;;;;5082074;28;20366;-87
2022/12/03 07:47:02;;;;;;;;;;;4.60;99.90;;;;;;5082670;28;19913;-87
2022/12/03 07:49:28;;;;;;;;;;;4.60;99.90;;;;;;5082734;28;19962;-86
2022/12/03 07:51:55;;;;;;;;;;;4.70;99.90;;;;;;5081899;28;19909;-87
2022/12/03 07:54:20;;;;;;;;;;;4.60;99.90;;;;;;5082738;28;19934;-87
2022/12/03 07:56:49;;;;;;;;;;;4.60;99.90;;;;;;5083357;28;20007;-87
2022/12/03 07:59:18;;;;;;;;;;;4.60;99.90;;;;;;5083821;28;19916;-87
2022/12/03 08:01:43;;;;;;;;;;;4.60;99.90;;;;;;5085876;28;20011;-87
2022/12/03 08:04:10;;;;;;;;;;;4.60;99.90;;;;;;5086012;28;20428;-87
2022/12/03 08:06:35;;;;;;;;;;;4.60;99.90;;;;;;5086212;28;19931;-88
2022/12/03 08:09:01;;;;;;;;;;;4.60;99.90;;;;;;5085834;28;19912;-88
2022/12/03 08:11:31;;;;;;;;;;;4.60;99.90;;;;;;5085364;28;19912;-87
2022/12/03 08:13:57;;;;;;;;;;;4.70;99.90;;;;;;5086010;28;19919;-87
2022/12/03 08:16:22;;;;;;;;;;;4.70;99.90;;;;;;5086038;28;19908;-87
2022/12/03 08:18:49;;;;;;;;;;;4.70;99.90;;;;;;5085134;28;19909;-87
2022/12/03 08:21:16;;;;;;;;;;;4.70;99.90;;;;;;5085793;28;19908;-87
2022/12/03 08:23:42;;;;;;;;;;;4.70;99.90;;;;;;5085463;28;19909;-87
2022/12/03 08:26:14;;;;;;;;;;;4.70;99.90;;;;;;5084695;28;19966;-88
2022/12/03 08:28:40;;;;;;;;;;;4.70;99.90;;;;;;5083676;28;19912;-87
2022/12/03 08:31:11;;;;;;;;;;;4.70;99.90;;;;;;5084467;28;20368;-86
2022/12/03 08:33:37;;;;;;;;;;;4.70;99.90;;;;;;5083989;28;19912;-87
2022/12/03 08:36:13;;;;;;;;;;;4.80;99.90;;;;;;5084626;28;19909;-87
2022/12/03 08:38:39;;;;;;;;;;;4.90;99.90;;;;;;5084243;28;19951;-87
2022/12/03 08:41:11;;;;;;;;;;;4.90;99.90;;;;;;5084576;28;19909;-87
2022/12/03 08:43:41;;;;;;;;;;;5.00;99.90;;;;;;5084186;28;19912;-87
2022/12/03 08:46:11;;;;;;;;;;;5.00;99.90;;;;;;5084271;28;19912;-87
2022/12/03 08:48:37;;;;;;;;;;;5.00;99.90;;;;;;5085013;28;19924;-87
2022/12/03 08:51:18;;;;;;;;;;;5.10;99.90;;;;;;5085023;28;19946;-87
2022/12/03 08:53:46;;;;;;;;;;;5.10;99.90;;;;;;5085424;28;19909;-86
2022/12/03 08:56:22;;;;;;;;;;;5.10;99.90;;;;;;5085932;28;19974;-87
2022/12/03 08:58:56;;;;;;;;;;;5.10;99.90;;;;;;5086388;28;19916;-86
2022/12/03 09:01:41;;;;;;;;;;;5.00;99.90;;;;;;5086003;28;19912;-87
2022/12/03 09:04:13;;;;;;;;;;;5.00;99.90;;;;;;5091085;22;20324;-83
2022/12/03 09:06:38;;;;;;;;;;;5.00;99.90;;;;;;5073802;28;20003;-85
2022/12/03 09:09:04;;;;;;;;;;;4.90;99.90;;;;;;5074068;28;20019;-85
2022/12/03 09:11:29;;;;;;;;;;;4.80;99.90;;;;;;5073722;28;19918;-85
2022/12/03 09:13:55;;;;;;;;;;;4.80;99.90;;;;;;5074049;28;20328;-83
2022/12/03 09:16:20;;;;;;;;;;;4.80;99.90;;;;;;5074084;28;20381;-85
2022/12/03 09:18:46;;;;;;;;;;;4.90;99.90;;;;;;5075374;28;20032;-85
2022/12/03 09:21:11;;;;;;;;;;;5.00;99.90;;;;;;5073507;28;20332;-87
2022/12/03 09:23:36;;;;;;;;;;;5.00;99.90;;;;;;5074975;28;19954;-85
2022/12/03 09:26:02;;;;;;;;;;;5.10;99.90;;;;;;5073891;28;19908;-85
2022/12/03 09:28:27;;;;;;;;;;;5.20;99.90;;;;;;5073496;28;20262;-84
2022/12/03 09:30:53;;;;;;;;;;;5.30;99.90;;;;;;5073593;28;19908;-81
2022/12/03 09:33:18;;;;;;;;;;;5.40;99.90;;;;;;5073718;28;19909;-84
2022/12/03 09:35:44;;;;;;;;;;;5.50;99.90;;;;;;5074876;28;19908;-83
2022/12/03 09:38:09;;;;;;;;;;;5.50;99.90;;;;;;5073565;28;19934;-83
2022/12/03 09:40:35;;;;;;;;;;;5.60;99.90;;;;;;5073718;28;20255;-85
2022/12/03 09:43:00;;;;;;;;;;;5.60;99.90;;;;;;5072793;28;19916;-84
2022/12/03 09:45:26;;;;;;;;;;;5.70;99.90;;;;;;5073030;28;19912;-83
2022/12/03 09:47:51;;;;;;;;;;;5.70;99.90;;;;;;5074436;28;19916;-85
2022/12/03 09:50:24;;;;;;;;;;;5.80;99.90;;;;;;5074145;28;19915;-85
2022/12/03 09:52:50;;;;;;;;;;;5.80;99.90;;;;;;5072327;28;19981;-84
2022/12/03 09:55:19;;;;;;;;;;;5.90;99.90;;;;;;5073006;28;19912;-82
2022/12/03 09:57:45;;;;;;;;;;;5.90;99.90;;;;;;5072555;28;19930;-85
2022/12/03 10:00:15;;;;;;;;;;;5.90;99.90;;;;;;5073239;28;19999;-86
2022/12/03 10:02:41;;;;;;;;;;;5.90;99.90;;;;;;5072217;28;19950;-85
2022/12/03 10:05:07;;;;;;;;;;;5.90;99.90;;;;;;5071941;28;19913;-85
2022/12/03 10:07:32;;;;;;;;;;;5.90;99.90;;;;;;5074061;28;19962;-83
2022/12/03 10:09:58;;;;;;;;;;;5.90;99.90;;;;;;5073720;28;19912;-86
2022/12/03 10:12:24;;;;;;;;;;;5.90;99.90;;;;;;5074208;28;19933;-85
2022/12/03 10:14:50;;;;;;;;;;;5.90;99.90;;;;;;5073244;28;19916;-85
2022/12/03 10:17:15;;;;;;;;;;;5.90;99.90;;;;;;5072508;28;19931;-83
2022/12/03 10:19:41;;;;;;;;;;;5.90;99.90;;;;;;5073014;28;19959;-85
2022/12/03 10:22:23;;;;;;;;;;;5.90;99.90;;;;;;5049605;28;20429;-85
2022/12/03 10:25:04;;;;;;;;;;;5.90;99.90;;;;;;5072633;28;20376;-84
2022/12/03 10:27:29;;;;;;;;;;;5.90;99.90;;;;;;5072864;28;19934;-84
2022/12/03 10:29:56;;;;;;;;;;;6.00;99.90;;;;;;5073564;28;19912;-83
2022/12/03 10:32:26;;;;;;;;;;;6.00;99.90;;;;;;5072317;28;19912;-85
2022/12/03 10:35:05;;;;;;;;;;;6.10;99.90;;;;;;5072607;28;19913;-85
2022/12/03 10:37:30;;;;;;;;;;;6.10;99.90;;;;;;5072236;28;19910;-84
2022/12/03 10:39:58;;;;;;;;;;;6.10;99.90;;;;;;5072069;28;20317;-83
2022/12/03 10:42:33;;;;;;;;;;;6.10;99.90;;;;;;5072109;28;19913;-83
2022/12/03 10:45:08;;;;;;;;;;;6.10;99.90;;;;;;5072370;28;19975;-85
2022/12/03 10:47:33;;;;;;;;;;;6.10;99.90;;;;;;5072031;28;19957;-82
2022/12/03 10:50:04;;;;;;;;;;;6.10;99.90;;;;;;5073371;28;19913;-85
2022/12/03 10:52:29;;;;;;;;;;;6.10;99.90;;;;;;5073322;28;20018;-83
2022/12/03 10:54:55;;;;;;;;;;;6.20;99.90;;;;;;5072442;28;19952;-83
2022/12/03 10:57:21;;;;;;;;;;;6.20;99.90;;;;;;5072113;28;19909;-84
2022/12/03 10:59:47;;;;;;;;;;;6.30;99.90;;;;;;5072326;28;20001;-86
2022/12/03 11:02:18;;;;;;;;;;;6.40;99.90;;;;;;5072469;28;19912;-83
2022/12/03 11:04:44;;;;;;;;;;;6.40;99.90;;;;;;5076431;28;19922;-85
2022/12/03 11:07:19;;;;;;;;;;;6.50;99.90;;;;;;5077408;28;19909;-86
2022/12/03 11:09:46;;;;;;;;;;;6.50;99.90;;;;;;5076005;28;20316;-84
2022/12/03 11:12:22;;;;;;;;;;;6.60;99.90;;;;;;5075980;28;20404;-82
2022/12/03 11:14:49;;;;;;;;;;;6.60;99.90;;;;;;5076109;28;19944;-86
2022/12/03 11:17:34;;;;;;;;;;;6.60;99.90;;;;;;5077594;28;19909;-83
2022/12/03 11:20:00;;;;;;;;;;;6.60;99.90;;;;;;5075799;28;19909;-85
2022/12/03 11:22:27;;;;;;;;;;;6.70;99.90;;;;;;5075656;28;20285;-85
2022/12/03 11:25:28;;;;;;;;;;;6.70;99.90;;;;;;5077101;28;19908;-84
2022/12/03 11:28:08;;;;;;;;;;;6.70;99.90;;;;;;5075121;28;20316;-83
2022/12/03 11:30:49;;;;;;;;;;;6.70;99.90;;;;;;5075810;28;19992;-84
2022/12/03 11:33:23;;;;;;;;;;;6.70;99.90;;;;;;5075349;28;19909;-85
2022/12/03 11:35:57;;;;;;;;;;;6.80;99.90;;;;;;5075738;28;19955;-84
2022/12/03 11:38:35;;;;;;;;;;;6.90;99.90;;;;;;5075465;28;19944;-84
2022/12/03 11:41:10;;;;;;;;;;;7.00;99.90;;;;;;5075186;28;20016;-83
2022/12/03 11:44:08;;;;;;;;;;;7.00;99.90;;;;;;5075479;28;19965;-85
2022/12/03 11:46:43;;;;;;;;;;;7.10;99.90;;;;;;5074775;28;20003;-84
2022/12/03 11:49:28;;;;;;;;;;;7.10;99.90;;;;;;5075323;28;19916;-83
2022/12/03 11:51:54;;;;;;;;;;;7.10;99.90;;;;;;5076255;28;19916;-84
2022/12/03 11:54:21;;;;;;;;;;;7.10;99.90;;;;;;5075105;28;19909;-84
2022/12/03 11:56:48;;;;;;;;;;;7.00;99.90;;;;;;5075335;28;19916;-85
2022/12/03 11:59:14;;;;;;;;;;;7.00;99.90;;;;;;5075222;28;19920;-85
2022/12/03 12:01:40;;;;;;;;;;;7.00;99.90;;;;;;5074697;28;19914;-82
2022/12/03 12:04:06;;;;;;;;;;;7.00;99.90;;;;;;5074684;28;19923;-82
2022/12/03 12:06:42;;;;;;;;;;;7.00;99.90;;;;;;5074433;28;19917;-82
2022/12/03 12:09:08;;;;;;;;;;;7.00;99.90;;;;;;5074366;28;20388;-82
2022/12/03 12:11:42;;;;;;;;;;;6.90;99.90;;;;;;5074193;28;19995;-82
2022/12/03 12:14:09;;;;;;;;;;;6.90;99.90;;;;;;5074990;28;19909;-86
2022/12/03 12:16:38;;;;;;;;;;;6.80;99.90;;;;;;5070442;28;19995;-85
2022/12/03 12:19:22;;;;;;;;;;;6.80;99.90;;;;;;5054499;28;20457;-85
2022/12/03 12:21:48;;;;;;;;;;;6.70;99.90;;;;;;5054718;28;19909;-86
2022/12/03 12:24:26;;;;;;;;;;;6.70;99.90;;;;;;5054647;28;19913;-85
2022/12/03 12:26:52;;;;;;;;;;;6.60;99.90;;;;;;5055435;28;20036;-85
2022/12/03 12:29:17;;;;;;;;;;;6.50;99.90;;;;;;5054413;28;19956;-85
2022/12/03 12:31:43;;;;;;;;;;;6.50;99.90;;;;;;5060342;28;19908;-85
2022/12/03 12:34:11;;;;;;;;;;;6.50;99.90;;;;;;5075710;28;19909;-84
2022/12/03 12:36:37;;;;;;;;;;;6.50;99.90;;;;;;5074086;28;19944;-85
2022/12/03 12:39:21;;;;;;;;;;;6.40;99.90;;;;;;5074061;28;19915;-84
2022/12/03 12:41:47;;;;;;;;;;;6.40;99.90;;;;;;5074039;28;19928;-85
2022/12/03 12:44:13;;;;;;;;;;;6.40;99.90;;;;;;5074420;28;20286;-84
2022/12/03 12:46:39;;;;;;;;;;;6.30;99.90;;;;;;5072715;28;19908;-85
2022/12/03 12:49:12;;;;;;;;;;;6.30;99.90;;;;;;5074339;28;19963;-84
2022/12/03 12:51:42;;;;;;;;;;;6.30;99.90;;;;;;5095486;28;19939;-84
2022/12/03 12:54:10;;;;;;;;;;;6.40;99.90;;;;;;5076311;28;19916;-84
2022/12/03 12:56:35;;;;;;;;;;;6.40;99.90;;;;;;5074709;28;19909;-86
2022/12/03 12:59:11;;;;;;;;;;;6.30;99.90;;;;;;5073492;28;19966;-85
2022/12/03 13:01:37;;;;;;;;;;;6.30;99.90;;;;;;5067442;28;21005;-84
2022/12/03 13:04:13;;;;;;;;;;;6.30;99.90;;;;;;5071459;28;20003;-84
2022/12/03 13:06:39;;;;;;;;;;;6.30;99.90;;;;;;5061080;28;19912;-86
2022/12/03 13:09:11;;;;;;;;;;;6.20;99.90;;;;;;5068881;28;20003;-85
2022/12/03 13:11:40;;;;;;;;;;;6.30;99.90;;;;;;5073915;28;19908;-85
2022/12/03 13:14:44;;;;;;;;;;;6.20;99.90;;;;;;5071216;28;19914;-85
2022/12/03 13:17:14;;;;;;;;;;;6.30;99.90;;;;;;5074619;28;19912;-86
2022/12/03 13:19:40;;;;;;;;;;;6.30;99.90;;;;;;5074661;28;19908;-86
2022/12/03 13:22:14;;;;;;;;;;;6.30;99.90;;;;;;5065628;28;20003;-85
2022/12/03 13:24:43;;;;;;;;;;;6.30;99.90;;;;;;5068658;28;20320;-85
2022/12/03 13:27:15;;;;;;;;;;;6.30;99.90;;;;;;5071033;28;19932;-87
2022/12/03 13:29:40;;;;;;;;;;;6.30;99.90;;;;;;5063351;28;19936;-84
2022/12/03 13:32:14;;;;;;;;;;;6.30;99.90;;;;;;5072298;28;20378;-85
2022/12/03 13:34:40;;;;;;;;;;;6.30;99.90;;;;;;5072368;28;20012;-84
2022/12/03 13:37:22;;;;;;;;;;;6.30;99.90;;;;;;5072471;28;19951;-85
2022/12/03 13:39:48;;;;;;;;;;;6.30;99.90;;;;;;5072344;28;19908;-84
2022/12/03 13:42:40;;;;;;;;;;;6.30;99.90;;;;;;5072473;28;19920;-85
2022/12/03 13:45:12;;;;;;;;;;;6.30;99.90;;;;;;5072479;28;19916;-84
2022/12/03 13:47:38;;;;;;;;;;;6.30;99.90;;;;;;5072301;28;19908;-85
2022/12/03 13:50:14;;;;;;;;;;;6.30;99.90;;;;;;5071816;28;19919;-85
2022/12/03 13:52:40;;;;;;;;;;;6.20;99.90;;;;;;5073035;28;20362;-85
2022/12/03 13:55:05;;;;;;;;;;;6.20;99.90;;;;;;5071781;28;19915;-85
2022/12/03 13:57:31;;;;;;;;;;;6.20;99.90;;;;;;5071929;28;20430;-84
2022/12/03 13:59:56;;;;;;;;;;;6.30;99.90;;;;;;5073114;28;20270;-84
2022/12/03 14:02:22;;;;;;;;;;;6.30;99.90;;;;;;5071821;28;20050;-85
2022/12/03 14:04:47;;;;;;;;;;;6.20;99.90;;;;;;5073235;28;19924;-84
2022/12/03 14:07:13;;;;;;;;;;;6.20;99.90;;;;;;5071754;28;20027;-81
2022/12/03 14:09:38;;;;;;;;;;;6.20;99.90;;;;;;5073317;28;19920;-86
2022/12/03 14:14:48;;;;;;;;;;;6.20;99.90;;;;;;5054448;28;20381;-85
2022/12/03 14:17:13;;;;;;;;;;;6.20;99.90;;;;;;5052092;28;19909;-83
2022/12/03 14:19:39;;;;;;;;;;;6.20;99.90;;;;;;5053321;28;19908;-84
2022/12/03 14:22:06;;;;;;;;;;;6.20;99.90;;;;;;5051532;28;19960;-84
2022/12/03 14:24:32;;;;;;;;;;;6.10;99.90;;;;;;5053449;28;19909;-84
2022/12/03 14:26:57;;;;;;;;;;;6.10;99.90;;;;;;5052075;28;20347;-85
2022/12/03 14:29:23;;;;;;;;;;;6.10;99.90;;;;;;5053415;28;20003;-84
2022/12/03 14:31:48;;;;;;;;;;;6.10;99.90;;;;;;5053294;28;19916;-84
2022/12/03 14:34:14;;;;;;;;;;;6.10;99.90;;;;;;5051798;28;19908;-84
2022/12/03 14:36:39;;;;;;;;;;;6.10;99.90;;;;;;5051343;28;19909;-84
2022/12/03 14:39:04;;;;;;;;;;;6.00;99.90;;;;;;5053152;28;20004;-84
2022/12/03 14:44:14;;;;;;;;;;;5.90;99.90;;;;;;5053343;28;20047;-84
2022/12/03 14:46:40;;;;;;;;;;;5.90;99.90;;;;;;5053355;28;19942;-83
2022/12/03 14:49:05;;;;;;;;;;;5.90;99.90;;;;;;5053055;28;20378;-84
2022/12/03 14:51:31;;;;;;;;;;;5.90;99.90;;;;;;5052983;28;19913;-84
2022/12/03 14:53:56;;;;;;;;;;;5.90;99.90;;;;;;5051751;28;19936;-83
2022/12/03 14:56:22;;;;;;;;;;;5.90;99.90;;;;;;5051709;28;20008;-84